BEL8MR LIML-EBBR
Flight info
| Callsign | BEL8MR |
|---|---|
| Flight time | 1h 9m |
| Altitude | 34000 |
| Route | ARLES2A ARLES DCT PUNSA DCT VADEM DCT GILIR DCT PENDU DCT IXILU DCT EPL DCT ROUSY DCT DIK Y37 BATTY BATTY7A |
| Aircraft | A319/M-SDE3FGHIRWY/LB1 |
Departure
| Time | 2026-05-04 14:22 |
|---|---|
| Airport | Milano Linate Airport (LIML) |
Arrival
| Time | 2026-05-04 15:32 |
|---|---|
| Airport | Brussels Airport (EBBR) |
| Time | Latitude | Longitude | Altitude | Speed | Heading |
|---|---|---|---|---|---|
| 2026-05-04 13:52 | 45.45728 | 9.28075 | 364 ft | 0 kts | 91° |
| 2026-05-04 14:10 | 45.45728 | 9.28074 | 359 ft | 0 kts | 91° |
| 2026-05-04 14:13 | 45.45728 | 9.28082 | 359 ft | 2 kts | 91° |
| 2026-05-04 14:13 | 45.45728 | 9.28116 | 359 ft | 5 kts | 91° |
| 2026-05-04 14:14 | 45.45701 | 9.28157 | 363 ft | 8 kts | 165° |
| 2026-05-04 14:14 | 45.45563 | 9.28157 | 361 ft | 10 kts | 180° |
| 2026-05-04 14:14 | 45.45517 | 9.28155 | 359 ft | 10 kts | 182° |
| 2026-05-04 14:15 | 45.45387 | 9.28148 | 359 ft | 9 kts | 182° |
| 2026-05-04 14:15 | 45.45253 | 9.28066 | 361 ft | 12 kts | 206° |
| 2026-05-04 14:16 | 45.45103 | 9.28058 | 364 ft | 11 kts | 175° |
| 2026-05-04 14:16 | 45.45023 | 9.28067 | 362 ft | 12 kts | 175° |
| 2026-05-04 14:17 | 45.44909 | 9.27932 | 360 ft | 10 kts | 207° |
| 2026-05-04 14:17 | 45.44844 | 9.27940 | 363 ft | 10 kts | 169° |
| 2026-05-04 14:17 | 45.44712 | 9.27954 | 363 ft | 10 kts | 176° |
| 2026-05-04 14:18 | 45.44636 | 9.27961 | 362 ft | 12 kts | 175° |
| 2026-05-04 14:18 | 45.44489 | 9.27976 | 366 ft | 9 kts | 176° |
| 2026-05-04 14:19 | 45.44327 | 9.27997 | 360 ft | 17 kts | 175° |
| 2026-05-04 14:19 | 45.44186 | 9.28012 | 362 ft | 22 kts | 176° |
| 2026-05-04 14:19 | 45.44034 | 9.28027 | 363 ft | 22 kts | 176° |
| 2026-05-04 14:19 | 45.43882 | 9.28043 | 362 ft | 22 kts | 176° |
| 2026-05-04 14:20 | 45.43729 | 9.28061 | 362 ft | 22 kts | 175° |
| 2026-05-04 14:20 | 45.43577 | 9.28077 | 360 ft | 22 kts | 176° |
| 2026-05-04 14:20 | 45.43462 | 9.28060 | 362 ft | 14 kts | 224° |
| 2026-05-04 14:21 | 45.43439 | 9.27874 | 360 ft | 9 kts | 275° |
| 2026-05-04 14:21 | 45.43467 | 9.27819 | 360 ft | 7 kts | 351° |
| 2026-05-04 14:21 | 45.43476 | 9.27818 | 360 ft | 0 kts | 356° |
| 2026-05-04 14:21 | 45.43683 | 9.27798 | 363 ft | 69 kts | 355° |
| 2026-05-04 14:22 | 45.44395 | 9.27719 | 361 ft | 134 kts | 355° |
| 2026-05-04 14:22 | 45.45418 | 9.27574 | 763 ft | 148 kts | 351° |
| 2026-05-04 14:22 | 45.46445 | 9.27387 | 1403 ft | 150 kts | 340° |
| 2026-05-04 14:22 | 45.47444 | 9.26941 | 1996 ft | 151 kts | 339° |
| 2026-05-04 14:23 | 45.49431 | 9.26013 | 3332 ft | 149 kts | 339° |
| 2026-05-04 14:23 | 45.50441 | 9.25537 | 3829 ft | 161 kts | 339° |
| 2026-05-04 14:23 | 45.51573 | 9.24987 | 4183 ft | 183 kts | 339° |
| 2026-05-04 14:24 | 45.52841 | 9.24330 | 4506 ft | 205 kts | 339° |
| 2026-05-04 14:24 | 45.54268 | 9.23580 | 4864 ft | 231 kts | 339° |
| 2026-05-04 14:24 | 45.55828 | 9.22769 | 5318 ft | 254 kts | 340° |
| 2026-05-04 14:24 | 45.57562 | 9.21903 | 5950 ft | 270 kts | 341° |
| 2026-05-04 14:25 | 45.59381 | 9.20960 | 6788 ft | 279 kts | 334° |
| 2026-05-04 14:25 | 45.62259 | 9.17247 | 8459 ft | 288 kts | 297° |
| 2026-05-04 14:25 | 45.62994 | 9.14595 | 9348 ft | 289 kts | 279° |
| 2026-05-04 14:26 | 45.63367 | 9.11770 | 10246 ft | 292 kts | 276° |
| 2026-05-04 14:26 | 45.63754 | 9.08813 | 10657 ft | 314 kts | 277° |
| 2026-05-04 14:26 | 45.64159 | 9.05692 | 11160 ft | 329 kts | 277° |
| 2026-05-04 14:26 | 45.64742 | 9.02482 | 11928 ft | 337 kts | 288° |
| 2026-05-04 14:27 | 45.65787 | 8.99458 | 12787 ft | 343 kts | 299° |
| 2026-05-04 14:27 | 45.67075 | 8.96566 | 13651 ft | 345 kts | 299° |
| 2026-05-04 14:27 | 45.68370 | 8.93657 | 14421 ft | 348 kts | 299° |
| 2026-05-04 14:27 | 45.69670 | 8.90726 | 15130 ft | 351 kts | 299° |
| 2026-05-04 14:28 | 45.70982 | 8.87761 | 15805 ft | 355 kts | 299° |
| 2026-05-04 14:28 | 45.72308 | 8.84759 | 16484 ft | 358 kts | 299° |
| 2026-05-04 14:28 | 45.73642 | 8.81727 | 17181 ft | 362 kts | 299° |
| 2026-05-04 14:28 | 45.74991 | 8.78665 | 17862 ft | 365 kts | 299° |
| 2026-05-04 14:29 | 45.77722 | 8.72456 | 19085 ft | 372 kts | 299° |
| 2026-05-04 14:29 | 45.80505 | 8.66125 | 20261 ft | 379 kts | 298° |
| 2026-05-04 14:30 | 45.81918 | 8.62902 | 20825 ft | 383 kts | 298° |
| 2026-05-04 14:30 | 45.83323 | 8.59689 | 21382 ft | 387 kts | 298° |
| 2026-05-04 14:30 | 45.86197 | 8.53092 | 22503 ft | 394 kts | 298° |
| 2026-05-04 14:31 | 45.87650 | 8.49738 | 23074 ft | 397 kts | 298° |
| 2026-05-04 14:31 | 45.90595 | 8.42921 | 24080 ft | 406 kts | 298° |
| 2026-05-04 14:32 | 45.93586 | 8.36001 | 25030 ft | 410 kts | 298° |
| 2026-05-04 14:32 | 45.95094 | 8.32505 | 25487 ft | 413 kts | 298° |
| 2026-05-04 14:32 | 45.96610 | 8.28979 | 25925 ft | 416 kts | 298° |
| 2026-05-04 14:32 | 45.98132 | 8.25432 | 26335 ft | 418 kts | 298° |
| 2026-05-04 14:33 | 45.99663 | 8.21852 | 26799 ft | 421 kts | 298° |
| 2026-05-04 14:33 | 46.01198 | 8.18257 | 27226 ft | 424 kts | 297° |
| 2026-05-04 14:33 | 46.02743 | 8.14626 | 27662 ft | 426 kts | 298° |
| 2026-05-04 14:33 | 46.04294 | 8.10973 | 28152 ft | 429 kts | 297° |
| 2026-05-04 14:34 | 46.05854 | 8.07294 | 28553 ft | 432 kts | 297° |
| 2026-05-04 14:34 | 46.07427 | 8.03592 | 28972 ft | 434 kts | 297° |
| 2026-05-04 14:34 | 46.09008 | 7.99876 | 29359 ft | 437 kts | 298° |
| 2026-05-04 14:34 | 46.10607 | 7.96141 | 29754 ft | 439 kts | 298° |
| 2026-05-04 14:35 | 46.12223 | 7.92374 | 30045 ft | 445 kts | 297° |
| 2026-05-04 14:35 | 46.13853 | 7.88566 | 30296 ft | 449 kts | 297° |
| 2026-05-04 14:35 | 46.15498 | 7.84714 | 30618 ft | 451 kts | 297° |
| 2026-05-04 14:35 | 46.17143 | 7.80845 | 30954 ft | 452 kts | 297° |
| 2026-05-04 14:36 | 46.18768 | 7.77018 | 31299 ft | 453 kts | 297° |
| 2026-05-04 14:36 | 46.20415 | 7.73137 | 31654 ft | 454 kts | 297° |
| 2026-05-04 14:36 | 46.22062 | 7.69254 | 32068 ft | 452 kts | 297° |
| 2026-05-04 14:36 | 46.23700 | 7.65391 | 32535 ft | 449 kts | 297° |
| 2026-05-04 14:37 | 46.25324 | 7.61559 | 33079 ft | 446 kts | 297° |
| 2026-05-04 14:37 | 46.26933 | 7.57752 | 33644 ft | 442 kts | 297° |
| 2026-05-04 14:37 | 46.28527 | 7.53978 | 34192 ft | 438 kts | 297° |
| 2026-05-04 14:37 | 46.30111 | 7.50216 | 34628 ft | 435 kts | 297° |
| 2026-05-04 14:38 | 46.31684 | 7.46482 | 35000 ft | 433 kts | 297° |
| 2026-05-04 14:38 | 46.33246 | 7.42766 | 35405 ft | 432 kts | 297° |
| 2026-05-04 14:38 | 46.34799 | 7.39053 | 35736 ft | 431 kts | 297° |
| 2026-05-04 14:38 | 46.36346 | 7.35338 | 36079 ft | 430 kts | 296° |
| 2026-05-04 14:39 | 46.37884 | 7.31637 | 36397 ft | 428 kts | 297° |
| 2026-05-04 14:39 | 46.39402 | 7.27993 | 36695 ft | 428 kts | 297° |
| 2026-05-04 14:39 | 46.40939 | 7.24303 | 37011 ft | 427 kts | 297° |
| 2026-05-04 14:40 | 46.44024 | 7.16902 | 37620 ft | 425 kts | 296° |
| 2026-05-04 14:40 | 46.45550 | 7.13235 | 37922 ft | 424 kts | 296° |
| 2026-05-04 14:40 | 46.47074 | 7.09572 | 38027 ft | 423 kts | 296° |
| 2026-05-04 14:40 | 46.48573 | 7.05970 | 38042 ft | 422 kts | 296° |
| 2026-05-04 14:41 | 46.51588 | 6.98673 | 38046 ft | 421 kts | 296° |
| 2026-05-04 14:42 | 46.57598 | 6.84073 | 38058 ft | 422 kts | 296° |
| 2026-05-04 14:42 | 46.60596 | 6.76736 | 38063 ft | 422 kts | 296° |
| 2026-05-04 14:43 | 46.63605 | 6.69384 | 38062 ft | 423 kts | 296° |
| 2026-05-04 14:43 | 46.66609 | 6.62030 | 38067 ft | 423 kts | 296° |
| 2026-05-04 14:44 | 46.69612 | 6.54667 | 38056 ft | 423 kts | 296° |
| 2026-05-04 14:44 | 46.73487 | 6.48110 | 38071 ft | 436 kts | 316° |
| 2026-05-04 14:45 | 46.76015 | 6.45619 | 38057 ft | 443 kts | 327° |
| 2026-05-04 14:45 | 46.78798 | 6.43629 | 38056 ft | 445 kts | 329° |
| 2026-05-04 14:45 | 46.84379 | 6.39680 | 38038 ft | 446 kts | 329° |
| 2026-05-04 14:46 | 46.89964 | 6.35677 | 38022 ft | 447 kts | 329° |
| 2026-05-04 14:46 | 46.95543 | 6.31670 | 38016 ft | 447 kts | 329° |
| 2026-05-04 14:47 | 47.01128 | 6.27663 | 38026 ft | 447 kts | 329° |
| 2026-05-04 14:47 | 47.06677 | 6.23670 | 38011 ft | 448 kts | 329° |
| 2026-05-04 14:48 | 47.12278 | 6.19635 | 38014 ft | 449 kts | 329° |
| 2026-05-04 14:48 | 47.17883 | 6.15594 | 38024 ft | 449 kts | 329° |
| 2026-05-04 14:49 | 47.23489 | 6.11538 | 38027 ft | 449 kts | 329° |
| 2026-05-04 14:49 | 47.29103 | 6.07471 | 38016 ft | 450 kts | 329° |
| 2026-05-04 14:50 | 47.34962 | 6.04099 | 38011 ft | 458 kts | 343° |
| 2026-05-04 14:50 | 47.41366 | 6.03404 | 38008 ft | 465 kts | 357° |
| 2026-05-04 14:51 | 47.47845 | 6.03553 | 38011 ft | 466 kts | 357° |
| 2026-05-04 14:51 | 47.54328 | 6.03680 | 38016 ft | 467 kts | 357° |
| 2026-05-04 14:52 | 47.60827 | 6.03826 | 38022 ft | 467 kts | 358° |
| 2026-05-04 14:52 | 47.67326 | 6.03989 | 38028 ft | 467 kts | 358° |
| 2026-05-04 14:53 | 47.73816 | 6.04144 | 38027 ft | 467 kts | 358° |
| 2026-05-04 14:53 | 47.80266 | 6.04315 | 38028 ft | 467 kts | 358° |
| 2026-05-04 14:54 | 47.86765 | 6.04525 | 38032 ft | 467 kts | 358° |
| 2026-05-04 14:54 | 47.93269 | 6.04742 | 38028 ft | 467 kts | 358° |
| 2026-05-04 14:55 | 47.99766 | 6.04948 | 38023 ft | 467 kts | 358° |
| 2026-05-04 14:55 | 48.06267 | 6.05141 | 38017 ft | 467 kts | 358° |
| 2026-05-04 14:56 | 48.12771 | 6.05344 | 38017 ft | 467 kts | 358° |
| 2026-05-04 14:56 | 48.19276 | 6.05545 | 38016 ft | 467 kts | 358° |
| 2026-05-04 14:57 | 48.25779 | 6.05761 | 38010 ft | 467 kts | 358° |
| 2026-05-04 14:57 | 48.32283 | 6.05976 | 38016 ft | 467 kts | 359° |
| 2026-05-04 14:58 | 48.38776 | 6.06234 | 38015 ft | 467 kts | 359° |
| 2026-05-04 14:58 | 48.44174 | 6.06496 | 38021 ft | 467 kts | 359° |
| 2026-05-04 14:59 | 48.51763 | 6.06877 | 38020 ft | 467 kts | 359° |
| 2026-05-04 15:00 | 48.61509 | 6.07345 | 38021 ft | 467 kts | 359° |
| 2026-05-04 15:00 | 48.67966 | 6.07640 | 38008 ft | 467 kts | 359° |
| 2026-05-04 15:01 | 48.77726 | 6.08109 | 38012 ft | 468 kts | 359° |
| 2026-05-04 15:01 | 48.84237 | 6.08430 | 38007 ft | 468 kts | 359° |
| 2026-05-04 15:02 | 48.90750 | 6.08736 | 38007 ft | 468 kts | 359° |
| 2026-05-04 15:02 | 48.96211 | 6.08982 | 38016 ft | 468 kts | 359° |
| 2026-05-04 15:03 | 49.02725 | 6.09307 | 38015 ft | 469 kts | 359° |
| 2026-05-04 15:03 | 49.09241 | 6.09625 | 38015 ft | 469 kts | 359° |
| 2026-05-04 15:04 | 49.12501 | 6.09786 | 37844 ft | 468 kts | 359° |
| 2026-05-04 15:04 | 49.15710 | 6.09941 | 37195 ft | 468 kts | 359° |
| 2026-05-04 15:04 | 49.19013 | 6.10098 | 36454 ft | 469 kts | 359° |
| 2026-05-04 15:04 | 49.22240 | 6.10251 | 35724 ft | 471 kts | 359° |
| 2026-05-04 15:05 | 49.25525 | 6.10409 | 34980 ft | 474 kts | 359° |
| 2026-05-04 15:05 | 49.28839 | 6.10570 | 34242 ft | 477 kts | 360° |
| 2026-05-04 15:05 | 49.32173 | 6.10732 | 33395 ft | 480 kts | 360° |
| 2026-05-04 15:05 | 49.35508 | 6.10897 | 32797 ft | 479 kts | 360° |
| 2026-05-04 15:06 | 49.38826 | 6.11065 | 32299 ft | 475 kts | 360° |
| 2026-05-04 15:06 | 49.42118 | 6.11231 | 31809 ft | 471 kts | 360° |
| 2026-05-04 15:06 | 49.45379 | 6.11394 | 31305 ft | 468 kts | 360° |
| 2026-05-04 15:07 | 49.51859 | 6.11694 | 30323 ft | 462 kts | 359° |
| 2026-05-04 15:07 | 49.55065 | 6.11819 | 29811 ft | 459 kts | 359° |
| 2026-05-04 15:07 | 49.58248 | 6.11937 | 29283 ft | 455 kts | 359° |
| 2026-05-04 15:07 | 49.61401 | 6.12052 | 28812 ft | 450 kts | 359° |
| 2026-05-04 15:08 | 49.64522 | 6.12167 | 28344 ft | 446 kts | 359° |
| 2026-05-04 15:08 | 49.67571 | 6.12281 | 27886 ft | 442 kts | 359° |
| 2026-05-04 15:08 | 49.70628 | 6.12396 | 27484 ft | 439 kts | 359° |
| 2026-05-04 15:08 | 49.73677 | 6.12512 | 27098 ft | 436 kts | 359° |
| 2026-05-04 15:09 | 49.76694 | 6.12629 | 26697 ft | 432 kts | 359° |
| 2026-05-04 15:09 | 49.79686 | 6.12744 | 26268 ft | 429 kts | 359° |
| 2026-05-04 15:09 | 49.82662 | 6.12854 | 25882 ft | 425 kts | 359° |
| 2026-05-04 15:10 | 49.88459 | 6.12173 | 25122 ft | 413 kts | 344° |
| 2026-05-04 15:10 | 49.91251 | 6.11186 | 24770 ft | 410 kts | 344° |
| 2026-05-04 15:10 | 49.96779 | 6.09245 | 24047 ft | 405 kts | 344° |
| 2026-05-04 15:11 | 49.99521 | 6.08286 | 23662 ft | 402 kts | 344° |
| 2026-05-04 15:11 | 50.02241 | 6.07331 | 23213 ft | 399 kts | 344° |
| 2026-05-04 15:11 | 50.04942 | 6.06377 | 22759 ft | 397 kts | 345° |
| 2026-05-04 15:11 | 50.07628 | 6.05425 | 22297 ft | 394 kts | 345° |
| 2026-05-04 15:12 | 50.10291 | 6.04482 | 21838 ft | 391 kts | 345° |
| 2026-05-04 15:12 | 50.12941 | 6.03543 | 21391 ft | 389 kts | 345° |
| 2026-05-04 15:12 | 50.15565 | 6.02611 | 20933 ft | 386 kts | 345° |
| 2026-05-04 15:12 | 50.18173 | 6.01685 | 20484 ft | 383 kts | 345° |
| 2026-05-04 15:13 | 50.20763 | 6.00762 | 20039 ft | 380 kts | 345° |
| 2026-05-04 15:13 | 50.23335 | 5.99843 | 19579 ft | 378 kts | 345° |
| 2026-05-04 15:13 | 50.25893 | 5.98931 | 19137 ft | 375 kts | 345° |
| 2026-05-04 15:13 | 50.28399 | 5.98039 | 18720 ft | 373 kts | 345° |
| 2026-05-04 15:14 | 50.30912 | 5.97144 | 18318 ft | 369 kts | 345° |
| 2026-05-04 15:14 | 50.33444 | 5.96239 | 17848 ft | 366 kts | 346° |
| 2026-05-04 15:14 | 50.35879 | 5.95367 | 17436 ft | 363 kts | 346° |
| 2026-05-04 15:14 | 50.38334 | 5.94487 | 17020 ft | 359 kts | 346° |
| 2026-05-04 15:15 | 50.40758 | 5.93617 | 16603 ft | 356 kts | 346° |
| 2026-05-04 15:15 | 50.43162 | 5.92751 | 16190 ft | 353 kts | 346° |
| 2026-05-04 15:15 | 50.45545 | 5.91890 | 15771 ft | 349 kts | 346° |
| 2026-05-04 15:16 | 50.50238 | 5.90198 | 14975 ft | 343 kts | 347° |
| 2026-05-04 15:16 | 50.52559 | 5.89363 | 14601 ft | 340 kts | 347° |
| 2026-05-04 15:16 | 50.57130 | 5.87710 | 13843 ft | 334 kts | 347° |
| 2026-05-04 15:17 | 50.59385 | 5.86889 | 13430 ft | 331 kts | 347° |
| 2026-05-04 15:17 | 50.63629 | 5.84351 | 12590 ft | 326 kts | 326° |
| 2026-05-04 15:17 | 50.65354 | 5.82074 | 12164 ft | 323 kts | 313° |
| 2026-05-04 15:18 | 50.66704 | 5.79266 | 11730 ft | 321 kts | 300° |
| 2026-05-04 15:18 | 50.67732 | 5.76156 | 11295 ft | 319 kts | 296° |
| 2026-05-04 15:18 | 50.68736 | 5.73038 | 10873 ft | 317 kts | 297° |
| 2026-05-04 15:19 | 50.70662 | 5.67049 | 10564 ft | 296 kts | 297° |
| 2026-05-04 15:19 | 50.71587 | 5.64169 | 10257 ft | 293 kts | 297° |
| 2026-05-04 15:19 | 50.73406 | 5.58475 | 9590 ft | 288 kts | 297° |
| 2026-05-04 15:20 | 50.74304 | 5.55667 | 9213 ft | 286 kts | 297° |
| 2026-05-04 15:20 | 50.75199 | 5.52873 | 8843 ft | 284 kts | 297° |
| 2026-05-04 15:20 | 50.76084 | 5.50104 | 8474 ft | 282 kts | 297° |
| 2026-05-04 15:20 | 50.76963 | 5.47345 | 8100 ft | 280 kts | 296° |
| 2026-05-04 15:21 | 50.77832 | 5.44605 | 7730 ft | 279 kts | 296° |
| 2026-05-04 15:21 | 50.78689 | 5.41899 | 7357 ft | 278 kts | 296° |
| 2026-05-04 15:21 | 50.80408 | 5.36476 | 6985 ft | 276 kts | 296° |
| 2026-05-04 15:22 | 50.81273 | 5.33749 | 6993 ft | 277 kts | 296° |
| 2026-05-04 15:22 | 50.82134 | 5.31032 | 6993 ft | 277 kts | 296° |
| 2026-05-04 15:22 | 50.83863 | 5.25566 | 6983 ft | 277 kts | 296° |
| 2026-05-04 15:23 | 50.84725 | 5.22834 | 6978 ft | 277 kts | 296° |
| 2026-05-04 15:23 | 50.85586 | 5.20098 | 6977 ft | 278 kts | 296° |
| 2026-05-04 15:23 | 50.86446 | 5.17361 | 6977 ft | 278 kts | 296° |
| 2026-05-04 15:23 | 50.87301 | 5.14633 | 6912 ft | 275 kts | 296° |
| 2026-05-04 15:24 | 50.89268 | 5.09498 | 6083 ft | 271 kts | 302° |
| 2026-05-04 15:24 | 50.91287 | 5.04479 | 5229 ft | 269 kts | 302° |
| 2026-05-04 15:25 | 50.92288 | 5.01989 | 4816 ft | 267 kts | 302° |
| 2026-05-04 15:25 | 50.93284 | 4.99511 | 4381 ft | 266 kts | 302° |
| 2026-05-04 15:25 | 50.94270 | 4.97045 | 4041 ft | 261 kts | 302° |
| 2026-05-04 15:26 | 50.96097 | 4.92476 | 3970 ft | 234 kts | 302° |
| 2026-05-04 15:26 | 50.96953 | 4.90316 | 3716 ft | 228 kts | 300° |
| 2026-05-04 15:26 | 50.97425 | 4.85453 | 3038 ft | 226 kts | 256° |
| 2026-05-04 15:27 | 50.96915 | 4.83057 | 3004 ft | 228 kts | 250° |
| 2026-05-04 15:27 | 50.95864 | 4.78417 | 2998 ft | 214 kts | 250° |
| 2026-05-04 15:28 | 50.94916 | 4.74256 | 2974 ft | 192 kts | 250° |
| 2026-05-04 15:28 | 50.94461 | 4.72262 | 2789 ft | 193 kts | 250° |
| 2026-05-04 15:28 | 50.93544 | 4.68243 | 2296 ft | 199 kts | 251° |
| 2026-05-04 15:29 | 50.93073 | 4.66193 | 2014 ft | 200 kts | 249° |
| 2026-05-04 15:30 | 50.91388 | 4.58836 | 1062 ft | 154 kts | 251° |
| 2026-05-04 15:30 | 50.90351 | 4.54317 | 461 ft | 141 kts | 251° |
| 2026-05-04 15:31 | 50.89694 | 4.51487 | 175 ft | 128 kts | 252° |
| 2026-05-04 15:31 | 50.89441 | 4.50363 | 176 ft | 86 kts | 250° |
| 2026-05-04 15:32 | 50.89273 | 4.49224 | 172 ft | 24 kts | 309° |
| 2026-05-04 15:32 | 50.89419 | 4.49007 | 161 ft | 16 kts | 4° |
| 2026-05-04 15:33 | 50.89619 | 4.49109 | 154 ft | 16 kts | 38° |
| 2026-05-04 15:34 | 50.90071 | 4.49317 | 131 ft | 29 kts | 14° |
| 2026-05-04 15:34 | 50.90256 | 4.49394 | 127 ft | 18 kts | 15° |
| 2026-05-04 15:34 | 50.90447 | 4.49277 | 120 ft | 18 kts | 335° |
| 2026-05-04 15:35 | 50.90639 | 4.49131 | 121 ft | 13 kts | 314° |
| 2026-05-04 15:35 | 50.90622 | 4.48997 | 118 ft | 14 kts | 245° |
| 2026-05-04 15:35 | 50.90582 | 4.48857 | 120 ft | 14 kts | 245° |
| 2026-05-04 15:36 | 50.90498 | 4.48631 | 121 ft | 8 kts | 182° |
| 2026-05-04 15:36 | 50.90454 | 4.48659 | 121 ft | 4 kts | 155° |
| 2026-05-04 15:36 | 50.90436 | 4.48672 | 121 ft | 2 kts | 155° |
| 2026-05-04 15:37 | 50.90427 | 4.48678 | 120 ft | 0 kts | 155° |